sensor_id;sensor_type;location;lat;lon;timestamp;temperature;humidity
22114;DHT22;11223;49.968;9.062;2023-06-10T00:00:34;16.10;99.90
22114;DHT22;11223;49.968;9.062;2023-06-10T00:03:00;16.10;99.90
22114;DHT22;11223;49.968;9.062;2023-06-10T00:05:27;16.00;99.90
22114;DHT22;11223;49.968;9.062;2023-06-10T00:07:55;16.00;99.90
22114;DHT22;11223;49.968;9.062;2023-06-10T00:10:21;15.90;99.90
22114;DHT22;11223;49.968;9.062;2023-06-10T00:12:47;15.90;99.90
22114;DHT22;11223;49.968;9.062;2023-06-10T00:15:12;15.80;99.90
22114;DHT22;11223;49.968;9.062;2023-06-10T00:17:38;15.80;99.90
22114;DHT22;11223;49.968;9.062;2023-06-10T00:20:05;15.70;99.90
22114;DHT22;11223;49.968;9.062;2023-06-10T00:22:34;15.80;99.90
22114;DHT22;11223;49.968;9.062;2023-06-10T00:25:00;15.70;99.90
22114;DHT22;11223;49.968;9.062;2023-06-10T00:27:25;15.70;99.90
22114;DHT22;11223;49.968;9.062;2023-06-10T00:29:56;15.60;99.90
22114;DHT22;11223;49.968;9.062;2023-06-10T00:32:21;15.60;99.90
22114;DHT22;11223;49.968;9.062;2023-06-10T00:34:47;15.60;99.90
22114;DHT22;11223;49.968;9.062;2023-06-10T00:37:12;15.60;99.90
22114;DHT22;11223;49.968;9.062;2023-06-10T00:39:39;15.50;99.90
22114;DHT22;11223;49.968;9.062;2023-06-10T00:42:04;15.50;99.90
22114;DHT22;11223;49.968;9.062;2023-06-10T00:44:32;15.50;99.90
22114;DHT22;11223;49.968;9.062;2023-06-10T00:46:57;15.50;99.90
22114;DHT22;11223;49.968;9.062;2023-06-10T00:49:23;15.40;99.90
22114;DHT22;11223;49.968;9.062;2023-06-10T00:51:49;15.40;99.90
22114;DHT22;11223;49.968;9.062;2023-06-10T00:54:14;15.30;99.90
22114;DHT22;11223;49.968;9.062;2023-06-10T00:56:40;15.30;99.90
22114;DHT22;11223;49.968;9.062;2023-06-10T00:59:08;15.30;99.90
22114;DHT22;11223;49.968;9.062;2023-06-10T01:01:34;15.20;99.90
22114;DHT22;11223;49.968;9.062;2023-06-10T01:04:00;15.20;99.90
22114;DHT22;11223;49.968;9.062;2023-06-10T01:06:32;15.20;99.90
22114;DHT22;11223;49.968;9.062;2023-06-10T01:11:28;15.10;99.90
22114;DHT22;11223;49.968;9.062;2023-06-10T01:13:55;15.10;99.90
22114;DHT22;11223;49.968;9.062;2023-06-10T01:16:21;15.00;99.90
22114;DHT22;11223;49.968;9.062;2023-06-10T01:18:46;15.00;99.90
22114;DHT22;11223;49.968;9.062;2023-06-10T01:21:19;14.90;99.90
22114;DHT22;11223;49.968;9.062;2023-06-10T01:23:45;14.90;99.90
22114;DHT22;11223;49.968;9.062;2023-06-10T01:26:10;14.80;99.90
22114;DHT22;11223;49.968;9.062;2023-06-10T01:28:48;14.80;99.90
22114;DHT22;11223;49.968;9.062;2023-06-10T01:31:20;14.80;99.90
22114;DHT22;11223;49.968;9.062;2023-06-10T01:33:51;14.70;99.90
22114;DHT22;11223;49.968;9.062;2023-06-10T01:36:17;14.70;99.90
22114;DHT22;11223;49.968;9.062;2023-06-10T01:38:44;14.70;99.90
22114;DHT22;11223;49.968;9.062;2023-06-10T01:41:10;14.60;99.90
22114;DHT22;11223;49.968;9.062;2023-06-10T01:43:37;14.60;99.90
22114;DHT22;11223;49.968;9.062;2023-06-10T01:46:03;14.60;99.90
22114;DHT22;11223;49.968;9.062;2023-06-10T01:48:29;14.50;99.90
22114;DHT22;11223;49.968;9.062;2023-06-10T01:50:54;14.50;99.90
22114;DHT22;11223;49.968;9.062;2023-06-10T01:53:21;14.40;99.90
22114;DHT22;11223;49.968;9.062;2023-06-10T01:55:47;14.40;99.90
22114;DHT22;11223;49.968;9.062;2023-06-10T01:58:13;14.40;99.90
22114;DHT22;11223;49.968;9.062;2023-06-10T02:00:38;14.40;99.90
22114;DHT22;11223;49.968;9.062;2023-06-10T02:03:05;14.40;99.90
22114;DHT22;11223;49.968;9.062;2023-06-10T02:05:30;14.30;99.90
22114;DHT22;11223;49.968;9.062;2023-06-10T02:07:56;14.30;99.90
22114;DHT22;11223;49.968;9.062;2023-06-10T02:10:21;14.30;99.90
22114;DHT22;11223;49.968;9.062;2023-06-10T02:12:47;14.20;99.90
22114;DHT22;11223;49.968;9.062;2023-06-10T02:15:12;14.20;99.90
22114;DHT22;11223;49.968;9.062;2023-06-10T02:17:37;14.20;99.90
22114;DHT22;11223;49.968;9.062;2023-06-10T02:20:03;14.20;99.90
22114;DHT22;11223;49.968;9.062;2023-06-10T02:22:32;14.20;99.90
22114;DHT22;11223;49.968;9.062;2023-06-10T02:24:57;14.20;99.90
22114;DHT22;11223;49.968;9.062;2023-06-10T02:27:23;14.20;99.90
22114;DHT22;11223;49.968;9.062;2023-06-10T02:29:48;14.20;99.90
22114;DHT22;11223;49.968;9.062;2023-06-10T02:32:14;14.10;99.90
22114;DHT22;11223;49.968;9.062;2023-06-10T02:34:39;14.10;99.90
22114;DHT22;11223;49.968;9.062;2023-06-10T02:37:05;14.10;99.90
22114;DHT22;11223;49.968;9.062;2023-06-10T02:39:30;14.10;99.90
22114;DHT22;11223;49.968;9.062;2023-06-10T02:41:56;14.00;99.90
22114;DHT22;11223;49.968;9.062;2023-06-10T02:44:21;14.00;99.90
22114;DHT22;11223;49.968;9.062;2023-06-10T02:46:47;14.00;99.90
22114;DHT22;11223;49.968;9.062;2023-06-10T02:49:12;13.90;99.90
22114;DHT22;11223;49.968;9.062;2023-06-10T02:51:38;13.90;99.90
22114;DHT22;11223;49.968;9.062;2023-06-10T02:54:04;13.80;99.90
22114;DHT22;11223;49.968;9.062;2023-06-10T02:56:30;13.80;99.90
22114;DHT22;11223;49.968;9.062;2023-06-10T02:58:55;13.70;99.90
22114;DHT22;11223;49.968;9.062;2023-06-10T03:01:21;13.70;99.90
22114;DHT22;11223;49.968;9.062;2023-06-10T03:03:46;13.70;99.90
22114;DHT22;11223;49.968;9.062;2023-06-10T03:06:12;13.60;99.90
22114;DHT22;11223;49.968;9.062;2023-06-10T03:08:38;13.60;99.90
22114;DHT22;11223;49.968;9.062;2023-06-10T03:11:04;13.60;99.90
22114;DHT22;11223;49.968;9.062;2023-06-10T03:13:29;13.60;99.90
22114;DHT22;11223;49.968;9.062;2023-06-10T03:15:55;13.60;99.90
22114;DHT22;11223;49.968;9.062;2023-06-10T03:18:20;13.60;99.90
22114;DHT22;11223;49.968;9.062;2023-06-10T03:20:48;13.60;99.90
22114;DHT22;11223;49.968;9.062;2023-06-10T03:23:13;13.60;99.90
22114;DHT22;11223;49.968;9.062;2023-06-10T03:25:39;13.60;99.90
22114;DHT22;11223;49.968;9.062;2023-06-10T03:28:04;13.60;99.90
22114;DHT22;11223;49.968;9.062;2023-06-10T03:30:30;13.60;99.90
22114;DHT22;11223;49.968;9.062;2023-06-10T03:32:55;13.60;99.90
22114;DHT22;11223;49.968;9.062;2023-06-10T03:35:21;13.50;99.90
22114;DHT22;11223;49.968;9.062;2023-06-10T03:37:46;13.50;99.90
22114;DHT22;11223;49.968;9.062;2023-06-10T03:40:12;13.50;99.90
22114;DHT22;11223;49.968;9.062;2023-06-10T03:42:37;13.40;99.90
22114;DHT22;11223;49.968;9.062;2023-06-10T03:45:03;13.40;99.90
22114;DHT22;11223;49.968;9.062;2023-06-10T03:47:36;13.40;99.90
22114;DHT22;11223;49.968;9.062;2023-06-10T03:50:04;13.40;99.90
22114;DHT22;11223;49.968;9.062;2023-06-10T03:52:30;13.40;99.90
22114;DHT22;11223;49.968;9.062;2023-06-10T03:54:56;13.40;99.90
22114;DHT22;11223;49.968;9.062;2023-06-10T03:57:21;13.50;99.90
22114;DHT22;11223;49.968;9.062;2023-06-10T03:59:47;13.50;99.90
22114;DHT22;11223;49.968;9.062;2023-06-10T04:02:12;13.50;99.90
22114;DHT22;11223;49.968;9.062;2023-06-10T04:04:38;13.50;99.90
22114;DHT22;11223;49.968;9.062;2023-06-10T04:07:04;13.60;99.90
22114;DHT22;11223;49.968;9.062;2023-06-10T04:09:31;13.60;99.90
22114;DHT22;11223;49.968;9.062;2023-06-10T04:11:57;13.60;99.90
22114;DHT22;11223;49.968;9.062;2023-06-10T04:14:22;13.60;99.90
22114;DHT22;11223;49.968;9.062;2023-06-10T04:16:48;13.70;99.90
22114;DHT22;11223;49.968;9.062;2023-06-10T04:19:13;13.70;99.90
22114;DHT22;11223;49.968;9.062;2023-06-10T04:21:39;13.70;99.90
22114;DHT22;11223;49.968;9.062;2023-06-10T04:24:04;13.70;99.90
22114;DHT22;11223;49.968;9.062;2023-06-10T04:26:30;13.80;99.90
22114;DHT22;11223;49.968;9.062;2023-06-10T04:28:55;13.90;99.90
22114;DHT22;11223;49.968;9.062;2023-06-10T04:31:21;13.90;99.90
22114;DHT22;11223;49.968;9.062;2023-06-10T04:33:46;14.00;99.90
22114;DHT22;11223;49.968;9.062;2023-06-10T04:36:12;14.00;99.90
22114;DHT22;11223;49.968;9.062;2023-06-10T04:38:37;14.00;99.90
22114;DHT22;11223;49.968;9.062;2023-06-10T04:41:03;14.10;99.90
22114;DHT22;11223;49.968;9.062;2023-06-10T04:43:29;14.10;99.90
22114;DHT22;11223;49.968;9.062;2023-06-10T04:45:55;14.20;99.90
22114;DHT22;11223;49.968;9.062;2023-06-10T04:48:20;14.20;99.90
22114;DHT22;11223;49.968;9.062;2023-06-10T04:50:45;14.30;99.90
22114;DHT22;11223;49.968;9.062;2023-06-10T04:53:11;14.40;99.90
22114;DHT22;11223;49.968;9.062;2023-06-10T04:55:36;14.40;99.90
22114;DHT22;11223;49.968;9.062;2023-06-10T04:58:02;14.40;99.90
22114;DHT22;11223;49.968;9.062;2023-06-10T05:00:27;14.50;99.90
22114;DHT22;11223;49.968;9.062;2023-06-10T05:02:53;14.50;99.90
22114;DHT22;11223;49.968;9.062;2023-06-10T05:05:18;14.60;99.90
22114;DHT22;11223;49.968;9.062;2023-06-10T05:07:44;14.70;99.90
22114;DHT22;11223;49.968;9.062;2023-06-10T05:10:10;14.70;99.90
22114;DHT22;11223;49.968;9.062;2023-06-10T05:12:38;14.80;99.90
22114;DHT22;11223;49.968;9.062;2023-06-10T05:15:04;14.90;99.90
22114;DHT22;11223;49.968;9.062;2023-06-10T05:17:30;15.00;99.90
22114;DHT22;11223;49.968;9.062;2023-06-10T05:19:55;15.10;99.90
22114;DHT22;11223;49.968;9.062;2023-06-10T05:22:21;15.10;99.90
22114;DHT22;11223;49.968;9.062;2023-06-10T05:24:49;15.20;99.90
22114;DHT22;11223;49.968;9.062;2023-06-10T05:27:14;15.30;99.90
22114;DHT22;11223;49.968;9.062;2023-06-10T05:29:40;15.40;99.90
22114;DHT22;11223;49.968;9.062;2023-06-10T05:32:05;15.50;99.90
22114;DHT22;11223;49.968;9.062;2023-06-10T05:34:31;15.50;99.90
22114;DHT22;11223;49.968;9.062;2023-06-10T05:36:56;15.60;99.90
22114;DHT22;11223;49.968;9.062;2023-06-10T05:39:22;15.70;99.90
22114;DHT22;11223;49.968;9.062;2023-06-10T05:41:48;15.80;99.90
22114;DHT22;11223;49.968;9.062;2023-06-10T05:44:13;15.90;99.90
22114;DHT22;11223;49.968;9.062;2023-06-10T05:46:39;16.00;99.90
22114;DHT22;11223;49.968;9.062;2023-06-10T05:49:04;16.10;99.90
22114;DHT22;11223;49.968;9.062;2023-06-10T05:51:30;16.20;99.90
22114;DHT22;11223;49.968;9.062;2023-06-10T05:53:55;16.30;99.90
22114;DHT22;11223;49.968;9.062;2023-06-10T05:56:21;16.30;99.90
22114;DHT22;11223;49.968;9.062;2023-06-10T05:58:49;16.50;99.90
22114;DHT22;11223;49.968;9.062;2023-06-10T06:01:14;16.60;99.90
22114;DHT22;11223;49.968;9.062;2023-06-10T06:03:40;16.70;99.90
22114;DHT22;11223;49.968;9.062;2023-06-10T06:06:06;16.70;99.90
22114;DHT22;11223;49.968;9.062;2023-06-10T06:08:31;16.90;99.90
22114;DHT22;11223;49.968;9.062;2023-06-10T06:10:57;17.00;99.90
22114;DHT22;11223;49.968;9.062;2023-06-10T06:13:22;17.10;99.90
22114;DHT22;11223;49.968;9.062;2023-06-10T06:15:48;17.30;99.90
22114;DHT22;11223;49.968;9.062;2023-06-10T06:18:13;17.40;99.90
22114;DHT22;11223;49.968;9.062;2023-06-10T06:20:39;17.60;99.90
22114;DHT22;11223;49.968;9.062;2023-06-10T06:23:05;17.70;99.90
22114;DHT22;11223;49.968;9.062;2023-06-10T06:25:30;17.90;99.90
22114;DHT22;11223;49.968;9.062;2023-06-10T06:27:56;18.00;99.90
22114;DHT22;11223;49.968;9.062;2023-06-10T06:30:21;18.10;99.90
22114;DHT22;11223;49.968;9.062;2023-06-10T06:32:47;18.30;99.90
22114;DHT22;11223;49.968;9.062;2023-06-10T06:35:12;18.40;99.90
22114;DHT22;11223;49.968;9.062;2023-06-10T06:37:38;18.50;99.90
22114;DHT22;11223;49.968;9.062;2023-06-10T06:40:03;18.60;99.90
22114;DHT22;11223;49.968;9.062;2023-06-10T06:42:29;18.70;99.90
22114;DHT22;11223;49.968;9.062;2023-06-10T06:44:54;18.80;99.90
22114;DHT22;11223;49.968;9.062;2023-06-10T06:47:20;19.00;99.90
22114;DHT22;11223;49.968;9.062;2023-06-10T06:49:46;19.20;99.90
22114;DHT22;11223;49.968;9.062;2023-06-10T06:52:12;19.30;99.90
22114;DHT22;11223;49.968;9.062;2023-06-10T06:54:38;19.50;99.90
22114;DHT22;11223;49.968;9.062;2023-06-10T06:57:03;19.70;99.90
22114;DHT22;11223;49.968;9.062;2023-06-10T06:59:29;19.80;99.90
22114;DHT22;11223;49.968;9.062;2023-06-10T07:01:54;19.90;99.90
22114;DHT22;11223;49.968;9.062;2023-06-10T07:04:20;20.00;99.90
22114;DHT22;11223;49.968;9.062;2023-06-10T07:06:47;20.20;99.90
22114;DHT22;11223;49.968;9.062;2023-06-10T07:09:12;20.30;99.90
22114;DHT22;11223;49.968;9.062;2023-06-10T07:11:38;20.40;99.90
22114;DHT22;11223;49.968;9.062;2023-06-10T07:14:04;20.60;99.90
22114;DHT22;11223;49.968;9.062;2023-06-10T07:16:29;20.70;99.90
22114;DHT22;11223;49.968;9.062;2023-06-10T07:18:55;20.90;99.90
22114;DHT22;11223;49.968;9.062;2023-06-10T07:21:20;21.00;99.90
22114;DHT22;11223;49.968;9.062;2023-06-10T07:23:47;21.10;99.90
22114;DHT22;11223;49.968;9.062;2023-06-10T07:26:13;21.20;99.90
22114;DHT22;11223;49.968;9.062;2023-06-10T07:28:39;21.40;99.90
22114;DHT22;11223;49.968;9.062;2023-06-10T07:31:04;21.50;99.90
22114;DHT22;11223;49.968;9.062;2023-06-10T07:33:30;21.60;99.90
22114;DHT22;11223;49.968;9.062;2023-06-10T07:35:55;21.70;99.90
22114;DHT22;11223;49.968;9.062;2023-06-10T07:38:21;21.80;99.90
22114;DHT22;11223;49.968;9.062;2023-06-10T07:40:46;21.90;99.90
22114;DHT22;11223;49.968;9.062;2023-06-10T07:43:12;22.00;99.90
22114;DHT22;11223;49.968;9.062;2023-06-10T07:45:39;22.20;99.90
22114;DHT22;11223;49.968;9.062;2023-06-10T07:48:05;22.30;99.90
22114;DHT22;11223;49.968;9.062;2023-06-10T07:50:30;22.40;99.90
22114;DHT22;11223;49.968;9.062;2023-06-10T07:52:56;22.50;99.90
22114;DHT22;11223;49.968;9.062;2023-06-10T07:55:21;22.60;99.90
22114;DHT22;11223;49.968;9.062;2023-06-10T07:57:47;22.70;99.90
22114;DHT22;11223;49.968;9.062;2023-06-10T08:00:12;22.80;99.90
22114;DHT22;11223;49.968;9.062;2023-06-10T08:02:38;23.00;99.90
22114;DHT22;11223;49.968;9.062;2023-06-10T08:05:04;23.20;99.90
22114;DHT22;11223;49.968;9.062;2023-06-10T08:07:29;23.20;99.90
22114;DHT22;11223;49.968;9.062;2023-06-10T08:09:56;23.40;99.90
22114;DHT22;11223;49.968;9.062;2023-06-10T08:12:21;23.50;99.90
22114;DHT22;11223;49.968;9.062;2023-06-10T08:14:47;23.70;99.90
22114;DHT22;11223;49.968;9.062;2023-06-10T08:17:12;23.80;99.90
22114;DHT22;11223;49.968;9.062;2023-06-10T08:19:38;24.00;99.90
22114;DHT22;11223;49.968;9.062;2023-06-10T08:22:03;24.20;99.90
22114;DHT22;11223;49.968;9.062;2023-06-10T08:24:29;24.30;99.90
22114;DHT22;11223;49.968;9.062;2023-06-10T08:26:54;24.40;99.90
22114;DHT22;11223;49.968;9.062;2023-06-10T08:29:21;24.50;99.40
22114;DHT22;11223;49.968;9.062;2023-06-10T08:31:47;24.60;99.80
22114;DHT22;11223;49.968;9.062;2023-06-10T08:34:12;24.70;99.40
22114;DHT22;11223;49.968;9.062;2023-06-10T08:36:38;24.80;98.80
22114;DHT22;11223;49.968;9.062;2023-06-10T08:39:03;25.10;98.80
22114;DHT22;11223;49.968;9.062;2023-06-10T08:41:29;25.30;98.60
22114;DHT22;11223;49.968;9.062;2023-06-10T08:44:17;25.50;98.80
22114;DHT22;11223;49.968;9.062;2023-06-10T08:46:44;25.70;97.80
22114;DHT22;11223;49.968;9.062;2023-06-10T08:49:10;25.80;93.20
22114;DHT22;11223;49.968;9.062;2023-06-10T08:51:35;25.90;92.00
22114;DHT22;11223;49.968;9.062;2023-06-10T08:54:07;26.10;92.40
22114;DHT22;11223;49.968;9.062;2023-06-10T08:56:36;26.30;90.10
22114;DHT22;11223;49.968;9.062;2023-06-10T08:59:04;26.50;91.10
22114;DHT22;11223;49.968;9.062;2023-06-10T09:01:30;26.70;88.00
22114;DHT22;11223;49.968;9.062;2023-06-10T09:03:56;26.80;88.30
22114;DHT22;11223;49.968;9.062;2023-06-10T09:06:22;27.00;85.40
22114;DHT22;11223;49.968;9.062;2023-06-10T09:08:48;27.10;83.80
22114;DHT22;11223;49.968;9.062;2023-06-10T09:11:13;27.20;84.00
22114;DHT22;11223;49.968;9.062;2023-06-10T09:13:39;27.30;82.50
22114;DHT22;11223;49.968;9.062;2023-06-10T09:16:04;27.40;80.60
22114;DHT22;11223;49.968;9.062;2023-06-10T09:18:30;27.40;82.70
22114;DHT22;11223;49.968;9.062;2023-06-10T09:20:56;27.50;82.90
22114;DHT22;11223;49.968;9.062;2023-06-10T09:23:21;27.60;82.70
22114;DHT22;11223;49.968;9.062;2023-06-10T09:25:51;27.80;81.60
22114;DHT22;11223;49.968;9.062;2023-06-10T09:28:20;27.90;81.40
22114;DHT22;11223;49.968;9.062;2023-06-10T09:30:46;28.00;78.30
22114;DHT22;11223;49.968;9.062;2023-06-10T09:33:12;28.10;76.50
22114;DHT22;11223;49.968;9.062;2023-06-10T09:35:45;28.10;75.50
22114;DHT22;11223;49.968;9.062;2023-06-10T09:38:11;28.20;74.90
22114;DHT22;11223;49.968;9.062;2023-06-10T09:40:48;28.20;76.30
22114;DHT22;11223;49.968;9.062;2023-06-10T09:43:13;28.30;73.20
22114;DHT22;11223;49.968;9.062;2023-06-10T09:45:39;28.30;74.00
22114;DHT22;11223;49.968;9.062;2023-06-10T09:48:05;28.40;72.20
22114;DHT22;11223;49.968;9.062;2023-06-10T09:50:33;28.50;70.80
22114;DHT22;11223;49.968;9.062;2023-06-10T09:53:00;28.50;68.90
22114;DHT22;11223;49.968;9.062;2023-06-10T09:55:27;28.50;69.90
22114;DHT22;11223;49.968;9.062;2023-06-10T09:57:53;28.60;70.40
22114;DHT22;11223;49.968;9.062;2023-06-10T10:00:19;28.60;70.90
22114;DHT22;11223;49.968;9.062;2023-06-10T10:02:45;28.70;67.40
22114;DHT22;11223;49.968;9.062;2023-06-10T10:05:13;28.80;67.90
22114;DHT22;11223;49.968;9.062;2023-06-10T10:07:38;28.80;69.60
22114;DHT22;11223;49.968;9.062;2023-06-10T10:10:04;28.90;68.10
22114;DHT22;11223;49.968;9.062;2023-06-10T10:12:30;29.00;66.40
22114;DHT22;11223;49.968;9.062;2023-06-10T10:14:55;29.00;68.40
22114;DHT22;11223;49.968;9.062;2023-06-10T10:17:21;29.10;66.90
22114;DHT22;11223;49.968;9.062;2023-06-10T10:19:56;29.20;64.60
22114;DHT22;11223;49.968;9.062;2023-06-10T10:22:26;29.20;64.20
22114;DHT22;11223;49.968;9.062;2023-06-10T10:24:55;29.30;64.60
22114;DHT22;11223;49.968;9.062;2023-06-10T10:27:26;29.40;64.10
22114;DHT22;11223;49.968;9.062;2023-06-10T10:29:52;29.50;63.60
22114;DHT22;11223;49.968;9.062;2023-06-10T10:32:19;29.50;62.20
22114;DHT22;11223;49.968;9.062;2023-06-10T10:34:52;29.60;63.20
22114;DHT22;11223;49.968;9.062;2023-06-10T10:37:19;29.60;63.30
22114;DHT22;11223;49.968;9.062;2023-06-10T10:39:45;29.70;62.40
22114;DHT22;11223;49.968;9.062;2023-06-10T10:42:10;29.90;64.40
22114;DHT22;11223;49.968;9.062;2023-06-10T10:44:37;29.90;62.40
22114;DHT22;11223;49.968;9.062;2023-06-10T10:47:03;30.00;62.90
22114;DHT22;11223;49.968;9.062;2023-06-10T10:49:31;30.10;60.10
22114;DHT22;11223;49.968;9.062;2023-06-10T10:51:57;30.10;59.90
22114;DHT22;11223;49.968;9.062;2023-06-10T10:54:30;30.10;60.80
22114;DHT22;11223;49.968;9.062;2023-06-10T10:59:44;30.20;61.70
22114;DHT22;11223;49.968;9.062;2023-06-10T11:02:09;30.40;59.40
22114;DHT22;11223;49.968;9.062;2023-06-10T11:04:35;30.40;58.90
22114;DHT22;11223;49.968;9.062;2023-06-10T11:07:06;30.50;58.90
22114;DHT22;11223;49.968;9.062;2023-06-10T11:09:32;30.60;58.80
22114;DHT22;11223;49.968;9.062;2023-06-10T11:11:58;30.80;58.40
22114;DHT22;11223;49.968;9.062;2023-06-10T11:14:27;30.80;57.80
22114;DHT22;11223;49.968;9.062;2023-06-10T11:16:58;30.90;57.80
22114;DHT22;11223;49.968;9.062;2023-06-10T11:19:31;30.90;55.50
22114;DHT22;11223;49.968;9.062;2023-06-10T11:22:01;30.90;55.50
22114;DHT22;11223;49.968;9.062;2023-06-10T11:24:26;30.90;57.50
22114;DHT22;11223;49.968;9.062;2023-06-10T11:26:52;31.00;57.50
22114;DHT22;11223;49.968;9.062;2023-06-10T11:29:17;31.00;56.40
22114;DHT22;11223;49.968;9.062;2023-06-10T11:31:44;31.10;55.90
22114;DHT22;11223;49.968;9.062;2023-06-10T11:34:10;31.10;59.10
22114;DHT22;11223;49.968;9.062;2023-06-10T11:36:37;31.20;57.10
22114;DHT22;11223;49.968;9.062;2023-06-10T11:39:03;31.30;55.80
22114;DHT22;11223;49.968;9.062;2023-06-10T11:41:30;31.50;55.10
22114;DHT22;11223;49.968;9.062;2023-06-10T11:43:56;31.50;54.40
22114;DHT22;11223;49.968;9.062;2023-06-10T11:46:22;31.50;55.10
22114;DHT22;11223;49.968;9.062;2023-06-10T11:48:51;31.60;54.10
22114;DHT22;11223;49.968;9.062;2023-06-10T11:51:17;31.60;54.60
22114;DHT22;11223;49.968;9.062;2023-06-10T11:53:49;31.60;54.60
22114;DHT22;11223;49.968;9.062;2023-06-10T11:56:21;31.50;55.50
22114;DHT22;11223;49.968;9.062;2023-06-10T11:58:51;31.50;56.60
22114;DHT22;11223;49.968;9.062;2023-06-10T12:01:24;31.30;56.20
22114;DHT22;11223;49.968;9.062;2023-06-10T12:04:00;31.10;56.30
22114;DHT22;11223;49.968;9.062;2023-06-10T12:06:25;30.90;56.90
22114;DHT22;11223;49.968;9.062;2023-06-10T12:08:51;31.10;56.20
22114;DHT22;11223;49.968;9.062;2023-06-10T12:11:16;30.80;56.30
22114;DHT22;11223;49.968;9.062;2023-06-10T12:13:45;30.80;56.40
22114;DHT22;11223;49.968;9.062;2023-06-10T12:16:13;30.90;55.90
22114;DHT22;11223;49.968;9.062;2023-06-10T12:18:39;31.00;56.30
22114;DHT22;11223;49.968;9.062;2023-06-10T12:21:15;31.20;57.50
22114;DHT22;11223;49.968;9.062;2023-06-10T12:23:40;31.30;56.40
22114;DHT22;11223;49.968;9.062;2023-06-10T12:26:06;31.40;57.50
22114;DHT22;11223;49.968;9.062;2023-06-10T12:28:32;31.50;56.40
22114;DHT22;11223;49.968;9.062;2023-06-10T12:31:06;31.70;55.90
22114;DHT22;11223;49.968;9.062;2023-06-10T12:33:33;31.80;57.30
22114;DHT22;11223;49.968;9.062;2023-06-10T12:35:58;31.90;57.30
22114;DHT22;11223;49.968;9.062;2023-06-10T12:38:24;32.10;55.50
22114;DHT22;11223;49.968;9.062;2023-06-10T12:40:52;32.20;54.30
22114;DHT22;11223;49.968;9.062;2023-06-10T12:43:24;32.30;54.70
22114;DHT22;11223;49.968;9.062;2023-06-10T12:45:49;32.30;55.40
22114;DHT22;11223;49.968;9.062;2023-06-10T12:48:19;32.30;53.40
22114;DHT22;11223;49.968;9.062;2023-06-10T12:50:46;32.30;52.40
22114;DHT22;11223;49.968;9.062;2023-06-10T12:53:12;32.20;52.80
22114;DHT22;11223;49.968;9.062;2023-06-10T12:55:38;32.20;54.30
22114;DHT22;11223;49.968;9.062;2023-06-10T12:58:03;32.30;54.80
22114;DHT22;11223;49.968;9.062;2023-06-10T13:00:29;32.20;53.70
22114;DHT22;11223;49.968;9.062;2023-06-10T13:02:55;32.10;53.20
22114;DHT22;11223;49.968;9.062;2023-06-10T13:05:21;32.20;52.00
22114;DHT22;11223;49.968;9.062;2023-06-10T13:07:47;32.10;52.30
22114;DHT22;11223;49.968;9.062;2023-06-10T13:10:13;32.20;51.40
22114;DHT22;11223;49.968;9.062;2023-06-10T13:12:39;32.30;52.70
22114;DHT22;11223;49.968;9.062;2023-06-10T13:15:05;32.50;52.30
22114;DHT22;11223;49.968;9.062;2023-06-10T13:17:30;32.70;51.60
22114;DHT22;11223;49.968;9.062;2023-06-10T13:19:56;32.80;51.90
22114;DHT22;11223;49.968;9.062;2023-06-10T13:22:21;32.90;53.50
22114;DHT22;11223;49.968;9.062;2023-06-10T13:24:49;33.00;52.40
22114;DHT22;11223;49.968;9.062;2023-06-10T13:27:14;33.10;52.40
22114;DHT22;11223;49.968;9.062;2023-06-10T13:29:40;33.20;53.30
22114;DHT22;11223;49.968;9.062;2023-06-10T13:32:06;33.10;52.50
22114;DHT22;11223;49.968;9.062;2023-06-10T13:34:31;32.90;51.60
22114;DHT22;11223;49.968;9.062;2023-06-10T13:36:57;32.80;52.20
22114;DHT22;11223;49.968;9.062;2023-06-10T13:39:22;32.40;52.30
22114;DHT22;11223;49.968;9.062;2023-06-10T13:41:48;32.30;53.80
22114;DHT22;11223;49.968;9.062;2023-06-10T13:44:14;32.60;52.60
22114;DHT22;11223;49.968;9.062;2023-06-10T13:46:39;33.00;53.00
22114;DHT22;11223;49.968;9.062;2023-06-10T13:49:05;33.40;52.10
22114;DHT22;11223;49.968;9.062;2023-06-10T13:51:30;33.90;49.70
22114;DHT22;11223;49.968;9.062;2023-06-10T13:53:56;34.20;49.00
22114;DHT22;11223;49.968;9.062;2023-06-10T13:56:21;34.50;48.40
22114;DHT22;11223;49.968;9.062;2023-06-10T13:58:47;34.70;48.70
22114;DHT22;11223;49.968;9.062;2023-06-10T14:01:12;34.80;47.40
22114;DHT22;11223;49.968;9.062;2023-06-10T14:03:38;34.70;48.00
22114;DHT22;11223;49.968;9.062;2023-06-10T14:06:03;34.70;48.90
22114;DHT22;11223;49.968;9.062;2023-06-10T14:08:29;34.70;50.00
22114;DHT22;11223;49.968;9.062;2023-06-10T14:10:55;34.80;45.70
22114;DHT22;11223;49.968;9.062;2023-06-10T14:13:20;34.60;48.30
22114;DHT22;11223;49.968;9.062;2023-06-10T14:15:45;34.50;48.40
22114;DHT22;11223;49.968;9.062;2023-06-10T14:18:11;34.50;49.00
22114;DHT22;11223;49.968;9.062;2023-06-10T14:20:37;34.60;49.10
22114;DHT22;11223;49.968;9.062;2023-06-10T14:23:02;34.60;49.40
22114;DHT22;11223;49.968;9.062;2023-06-10T14:25:28;34.50;48.30
22114;DHT22;11223;49.968;9.062;2023-06-10T14:27:53;34.40;47.50
22114;DHT22;11223;49.968;9.062;2023-06-10T14:30:19;34.10;48.50
22114;DHT22;11223;49.968;9.062;2023-06-10T14:32:44;33.90;48.70
22114;DHT22;11223;49.968;9.062;2023-06-10T14:35:10;33.70;48.90
22114;DHT22;11223;49.968;9.062;2023-06-10T14:37:36;33.40;47.80
22114;DHT22;11223;49.968;9.062;2023-06-10T14:40:03;33.10;49.40
22114;DHT22;11223;49.968;9.062;2023-06-10T14:42:28;33.30;49.70
22114;DHT22;11223;49.968;9.062;2023-06-10T14:44:54;33.70;48.70
22114;DHT22;11223;49.968;9.062;2023-06-10T14:47:19;34.00;48.60
22114;DHT22;11223;49.968;9.062;2023-06-10T14:49:45;34.40;47.00
22114;DHT22;11223;49.968;9.062;2023-06-10T14:52:10;34.70;46.80
22114;DHT22;11223;49.968;9.062;2023-06-10T14:54:36;35.20;45.70
22114;DHT22;11223;49.968;9.062;2023-06-10T14:57:01;35.40;46.90
22114;DHT22;11223;49.968;9.062;2023-06-10T14:59:27;35.90;47.50
22114;DHT22;11223;49.968;9.062;2023-06-10T15:01:52;36.50;45.20
22114;DHT22;11223;49.968;9.062;2023-06-10T15:04:18;36.90;43.60
22114;DHT22;11223;49.968;9.062;2023-06-10T15:06:43;37.10;43.90
22114;DHT22;11223;49.968;9.062;2023-06-10T15:09:09;37.00;43.40
22114;DHT22;11223;49.968;9.062;2023-06-10T15:11:34;36.70;43.60
22114;DHT22;11223;49.968;9.062;2023-06-10T15:14:00;35.80;44.30
22114;DHT22;11223;49.968;9.062;2023-06-10T15:16:25;34.60;45.90
22114;DHT22;11223;49.968;9.062;2023-06-10T15:18:51;33.70;47.50
22114;DHT22;11223;49.968;9.062;2023-06-10T15:21:16;33.00;50.30
22114;DHT22;11223;49.968;9.062;2023-06-10T15:23:42;32.70;50.40
22114;DHT22;11223;49.968;9.062;2023-06-10T15:26:07;33.10;51.50
22114;DHT22;11223;49.968;9.062;2023-06-10T15:28:33;33.60;51.60